sensor_id;sensor_type;location;lat;lon;timestamp;P1;durP1;ratioP1;P2;durP2;ratioP2
25191;SDS011;13143;50.924;5.320;2022-11-23T00:00:09;11.35;;;2.50;;
25191;SDS011;13143;50.924;5.320;2022-11-23T00:02:35;18.23;;;3.00;;
25191;SDS011;13143;50.924;5.320;2022-11-23T00:05:01;13.13;;;3.70;;
25191;SDS011;13143;50.924;5.320;2022-11-23T00:07:26;16.50;;;2.95;;
25191;SDS011;13143;50.924;5.320;2022-11-23T00:09:52;14.95;;;2.85;;
25191;SDS011;13143;50.924;5.320;2022-11-23T00:12:17;19.27;;;3.97;;
25191;SDS011;13143;50.924;5.320;2022-11-23T00:14:43;15.73;;;2.85;;
25191;SDS011;13143;50.924;5.320;2022-11-23T00:17:08;16.42;;;3.15;;
25191;SDS011;13143;50.924;5.320;2022-11-23T00:19:34;17.73;;;3.03;;
25191;SDS011;13143;50.924;5.320;2022-11-23T00:22:00;16.58;;;3.50;;
25191;SDS011;13143;50.924;5.320;2022-11-23T00:24:25;15.20;;;2.88;;
25191;SDS011;13143;50.924;5.320;2022-11-23T00:26:51;16.60;;;2.35;;
25191;SDS011;13143;50.924;5.320;2022-11-23T00:29:16;11.85;;;2.65;;
25191;SDS011;13143;50.924;5.320;2022-11-23T00:31:42;10.13;;;2.47;;
25191;SDS011;13143;50.924;5.320;2022-11-23T00:34:08;13.43;;;2.67;;
25191;SDS011;13143;50.924;5.320;2022-11-23T00:36:33;12.82;;;2.85;;
25191;SDS011;13143;50.924;5.320;2022-11-23T00:38:59;14.45;;;2.60;;
25191;SDS011;13143;50.924;5.320;2022-11-23T00:41:25;7.35;;;2.15;;
25191;SDS011;13143;50.924;5.320;2022-11-23T00:43:52;14.18;;;2.55;;
25191;SDS011;13143;50.924;5.320;2022-11-23T00:48:50;12.25;;;2.47;;
25191;SDS011;13143;50.924;5.320;2022-11-23T00:51:21;14.55;;;2.20;;
25191;SDS011;13143;50.924;5.320;2022-11-23T00:53:51;13.45;;;2.58;;
25191;SDS011;13143;50.924;5.320;2022-11-23T00:56:17;10.40;;;2.33;;
25191;SDS011;13143;50.924;5.320;2022-11-23T00:58:53;13.85;;;2.67;;
25191;SDS011;13143;50.924;5.320;2022-11-23T01:01:22;10.05;;;2.33;;
25191;SDS011;13143;50.924;5.320;2022-11-23T01:03:50;13.02;;;2.50;;
25191;SDS011;13143;50.924;5.320;2022-11-23T01:06:21;13.27;;;2.33;;
25191;SDS011;13143;50.924;5.320;2022-11-23T01:08:58;20.50;;;2.88;;
25191;SDS011;13143;50.924;5.320;2022-11-23T01:11:27;11.40;;;2.78;;
25191;SDS011;13143;50.924;5.320;2022-11-23T01:13:55;13.00;;;3.00;;
25191;SDS011;13143;50.924;5.320;2022-11-23T01:16:22;15.82;;;2.92;;
25191;SDS011;13143;50.924;5.320;2022-11-23T01:18:56;19.25;;;2.97;;
25191;SDS011;13143;50.924;5.320;2022-11-23T01:23:50;17.25;;;3.30;;
25191;SDS011;13143;50.924;5.320;2022-11-23T01:26:16;17.23;;;3.08;;
25191;SDS011;13143;50.924;5.320;2022-11-23T01:28:42;13.40;;;2.88;;
25191;SDS011;13143;50.924;5.320;2022-11-23T01:33:35;16.60;;;3.55;;
25191;SDS011;13143;50.924;5.320;2022-11-23T01:36:11;20.70;;;3.78;;
25191;SDS011;13143;50.924;5.320;2022-11-23T01:38:42;18.20;;;3.47;;
25191;SDS011;13143;50.924;5.320;2022-11-23T01:41:10;16.98;;;2.83;;
25191;SDS011;13143;50.924;5.320;2022-11-23T01:43:38;14.65;;;3.83;;
25191;SDS011;13143;50.924;5.320;2022-11-23T01:46:05;17.10;;;2.75;;
25191;SDS011;13143;50.924;5.320;2022-11-23T01:48:33;23.05;;;3.42;;
25191;SDS011;13143;50.924;5.320;2022-11-23T01:51:14;17.30;;;2.92;;
25191;SDS011;13143;50.924;5.320;2022-11-23T01:53:43;16.15;;;3.38;;
25191;SDS011;13143;50.924;5.320;2022-11-23T01:56:13;16.85;;;3.33;;
25191;SDS011;13143;50.924;5.320;2022-11-23T01:58:43;21.17;;;3.50;;
25191;SDS011;13143;50.924;5.320;2022-11-23T02:01:12;21.50;;;3.30;;
25191;SDS011;13143;50.924;5.320;2022-11-23T02:03:38;20.63;;;3.35;;
25191;SDS011;13143;50.924;5.320;2022-11-23T02:06:07;20.42;;;3.75;;
25191;SDS011;13143;50.924;5.320;2022-11-23T02:08:37;20.95;;;3.40;;
25191;SDS011;13143;50.924;5.320;2022-11-23T02:11:03;21.73;;;3.13;;
25191;SDS011;13143;50.924;5.320;2022-11-23T02:13:29;18.42;;;3.38;;
25191;SDS011;13143;50.924;5.320;2022-11-23T02:15:55;24.27;;;3.28;;
25191;SDS011;13143;50.924;5.320;2022-11-23T02:18:23;22.25;;;3.72;;
25191;SDS011;13143;50.924;5.320;2022-11-23T02:20:51;17.45;;;3.25;;
25191;SDS011;13143;50.924;5.320;2022-11-23T02:23:29;26.48;;;4.10;;
25191;SDS011;13143;50.924;5.320;2022-11-23T02:26:25;25.50;;;3.40;;
25191;SDS011;13143;50.924;5.320;2022-11-23T02:29:00;18.70;;;2.92;;
25191;SDS011;13143;50.924;5.320;2022-11-23T02:31:29;23.42;;;3.70;;
25191;SDS011;13143;50.924;5.320;2022-11-23T02:33:54;30.85;;;4.20;;
25191;SDS011;13143;50.924;5.320;2022-11-23T02:39:07;22.00;;;3.33;;
25191;SDS011;13143;50.924;5.320;2022-11-23T02:41:42;21.90;;;3.80;;
25191;SDS011;13143;50.924;5.320;2022-11-23T02:46:52;25.75;;;4.43;;
25191;SDS011;13143;50.924;5.320;2022-11-23T02:49:18;29.73;;;3.67;;
25191;SDS011;13143;50.924;5.320;2022-11-23T02:51:44;26.42;;;4.30;;
25191;SDS011;13143;50.924;5.320;2022-11-23T02:54:09;26.52;;;3.40;;
25191;SDS011;13143;50.924;5.320;2022-11-23T02:56:35;32.13;;;5.13;;
25191;SDS011;13143;50.924;5.320;2022-11-23T02:59:01;26.00;;;3.47;;
25191;SDS011;13143;50.924;5.320;2022-11-23T03:01:27;18.38;;;3.10;;
25191;SDS011;13143;50.924;5.320;2022-11-23T03:03:53;26.70;;;4.18;;
25191;SDS011;13143;50.924;5.320;2022-11-23T03:06:18;27.73;;;3.67;;
25191;SDS011;13143;50.924;5.320;2022-11-23T03:08:44;21.35;;;3.53;;
25191;SDS011;13143;50.924;5.320;2022-11-23T03:11:10;30.40;;;4.50;;
25191;SDS011;13143;50.924;5.320;2022-11-23T03:13:35;23.35;;;3.42;;
25191;SDS011;13143;50.924;5.320;2022-11-23T03:16:01;22.42;;;4.15;;
25191;SDS011;13143;50.924;5.320;2022-11-23T03:18:26;27.92;;;4.15;;
25191;SDS011;13143;50.924;5.320;2022-11-23T03:20:52;16.52;;;3.97;;
25191;SDS011;13143;50.924;5.320;2022-11-23T03:23:18;23.30;;;3.63;;
25191;SDS011;13143;50.924;5.320;2022-11-23T03:25:43;23.77;;;5.35;;
25191;SDS011;13143;50.924;5.320;2022-11-23T03:28:09;23.13;;;3.75;;
25191;SDS011;13143;50.924;5.320;2022-11-23T03:30:35;26.58;;;3.20;;
25191;SDS011;13143;50.924;5.320;2022-11-23T03:33:00;33.58;;;4.13;;
25191;SDS011;13143;50.924;5.320;2022-11-23T03:35:26;25.85;;;3.30;;
25191;SDS011;13143;50.924;5.320;2022-11-23T03:37:51;30.40;;;4.18;;
25191;SDS011;13143;50.924;5.320;2022-11-23T03:40:17;23.70;;;3.20;;
25191;SDS011;13143;50.924;5.320;2022-11-23T03:42:42;22.08;;;3.13;;
25191;SDS011;13143;50.924;5.320;2022-11-23T03:45:08;27.20;;;4.57;;
25191;SDS011;13143;50.924;5.320;2022-11-23T03:47:34;21.23;;;3.42;;
25191;SDS011;13143;50.924;5.320;2022-11-23T03:50:00;17.38;;;3.30;;
25191;SDS011;13143;50.924;5.320;2022-11-23T03:52:26;24.40;;;3.78;;
25191;SDS011;13143;50.924;5.320;2022-11-23T03:54:51;27.38;;;4.20;;
25191;SDS011;13143;50.924;5.320;2022-11-23T03:57:17;29.80;;;4.85;;
25191;SDS011;13143;50.924;5.320;2022-11-23T03:59:42;21.98;;;3.10;;
25191;SDS011;13143;50.924;5.320;2022-11-23T04:02:08;21.73;;;3.70;;
25191;SDS011;13143;50.924;5.320;2022-11-23T04:04:34;19.30;;;3.08;;
25191;SDS011;13143;50.924;5.320;2022-11-23T04:07:00;23.02;;;3.80;;
25191;SDS011;13143;50.924;5.320;2022-11-23T04:09:26;16.10;;;2.78;;
25191;SDS011;13143;50.924;5.320;2022-11-23T04:11:51;25.65;;;3.20;;
25191;SDS011;13143;50.924;5.320;2022-11-23T04:14:17;28.02;;;3.88;;
25191;SDS011;13143;50.924;5.320;2022-11-23T04:16:42;16.00;;;3.15;;
25191;SDS011;13143;50.924;5.320;2022-11-23T04:19:08;28.25;;;4.18;;
25191;SDS011;13143;50.924;5.320;2022-11-23T04:21:34;19.75;;;2.88;;
25191;SDS011;13143;50.924;5.320;2022-11-23T04:24:00;23.23;;;3.20;;
25191;SDS011;13143;50.924;5.320;2022-11-23T04:26:25;25.42;;;3.65;;
25191;SDS011;13143;50.924;5.320;2022-11-23T04:28:51;17.83;;;3.85;;
25191;SDS011;13143;50.924;5.320;2022-11-23T04:31:16;22.67;;;3.28;;
25191;SDS011;13143;50.924;5.320;2022-11-23T04:33:42;24.98;;;4.10;;
25191;SDS011;13143;50.924;5.320;2022-11-23T04:36:08;16.67;;;3.13;;
25191;SDS011;13143;50.924;5.320;2022-11-23T04:38:33;18.70;;;3.10;;
25191;SDS011;13143;50.924;5.320;2022-11-23T04:40:59;17.02;;;3.22;;
25191;SDS011;13143;50.924;5.320;2022-11-23T04:43:25;26.00;;;4.28;;
25191;SDS011;13143;50.924;5.320;2022-11-23T04:45:50;22.92;;;3.53;;
25191;SDS011;13143;50.924;5.320;2022-11-23T04:48:16;22.58;;;3.20;;
25191;SDS011;13143;50.924;5.320;2022-11-23T04:50:42;20.30;;;3.08;;
25191;SDS011;13143;50.924;5.320;2022-11-23T04:53:07;23.83;;;3.85;;
25191;SDS011;13143;50.924;5.320;2022-11-23T04:55:33;21.63;;;2.78;;
25191;SDS011;13143;50.924;5.320;2022-11-23T04:57:59;18.70;;;3.25;;
25191;SDS011;13143;50.924;5.320;2022-11-23T05:00:25;25.70;;;3.40;;
25191;SDS011;13143;50.924;5.320;2022-11-23T05:02:51;22.50;;;3.30;;
25191;SDS011;13143;50.924;5.320;2022-11-23T05:05:17;27.60;;;4.38;;
25191;SDS011;13143;50.924;5.320;2022-11-23T05:07:42;20.20;;;3.15;;
25191;SDS011;13143;50.924;5.320;2022-11-23T05:10:08;22.38;;;3.13;;
25191;SDS011;13143;50.924;5.320;2022-11-23T05:12:34;18.55;;;3.05;;
25191;SDS011;13143;50.924;5.320;2022-11-23T05:15:01;21.42;;;3.10;;
25191;SDS011;13143;50.924;5.320;2022-11-23T05:17:27;23.02;;;3.40;;
25191;SDS011;13143;50.924;5.320;2022-11-23T05:19:53;21.52;;;3.58;;
25191;SDS011;13143;50.924;5.320;2022-11-23T05:22:20;20.65;;;3.78;;
25191;SDS011;13143;50.924;5.320;2022-11-23T05:24:45;19.90;;;3.95;;
25191;SDS011;13143;50.924;5.320;2022-11-23T05:27:11;26.92;;;3.25;;
25191;SDS011;13143;50.924;5.320;2022-11-23T05:29:37;23.05;;;4.00;;
25191;SDS011;13143;50.924;5.320;2022-11-23T05:32:03;22.88;;;4.57;;
25191;SDS011;13143;50.924;5.320;2022-11-23T05:34:29;23.00;;;3.38;;
25191;SDS011;13143;50.924;5.320;2022-11-23T05:36:54;21.00;;;3.45;;
25191;SDS011;13143;50.924;5.320;2022-11-23T05:39:20;29.02;;;3.47;;
25191;SDS011;13143;50.924;5.320;2022-11-23T05:41:46;21.02;;;3.75;;
25191;SDS011;13143;50.924;5.320;2022-11-23T05:44:11;21.23;;;3.58;;
25191;SDS011;13143;50.924;5.320;2022-11-23T05:46:37;23.05;;;3.00;;
25191;SDS011;13143;50.924;5.320;2022-11-23T05:49:03;25.63;;;3.47;;
25191;SDS011;13143;50.924;5.320;2022-11-23T05:51:28;18.35;;;2.72;;
25191;SDS011;13143;50.924;5.320;2022-11-23T05:53:56;23.27;;;3.65;;
25191;SDS011;13143;50.924;5.320;2022-11-23T05:56:22;27.77;;;4.28;;
25191;SDS011;13143;50.924;5.320;2022-11-23T05:58:48;23.00;;;3.92;;
25191;SDS011;13143;50.924;5.320;2022-11-23T06:01:13;24.15;;;3.13;;
25191;SDS011;13143;50.924;5.320;2022-11-23T06:03:39;15.55;;;3.70;;
25191;SDS011;13143;50.924;5.320;2022-11-23T06:06:05;20.73;;;3.28;;
25191;SDS011;13143;50.924;5.320;2022-11-23T06:08:30;30.05;;;3.53;;
25191;SDS011;13143;50.924;5.320;2022-11-23T06:10:58;21.45;;;3.40;;
25191;SDS011;13143;50.924;5.320;2022-11-23T06:13:25;26.95;;;3.80;;
25191;SDS011;13143;50.924;5.320;2022-11-23T06:15:50;22.80;;;3.67;;
25191;SDS011;13143;50.924;5.320;2022-11-23T06:18:16;17.02;;;3.22;;
25191;SDS011;13143;50.924;5.320;2022-11-23T06:20:42;20.63;;;3.17;;
25191;SDS011;13143;50.924;5.320;2022-11-23T06:23:07;19.33;;;3.20;;
25191;SDS011;13143;50.924;5.320;2022-11-23T06:25:33;25.60;;;4.35;;
25191;SDS011;13143;50.924;5.320;2022-11-23T06:27:59;22.85;;;3.50;;
25191;SDS011;13143;50.924;5.320;2022-11-23T06:30:26;28.27;;;3.28;;
25191;SDS011;13143;50.924;5.320;2022-11-23T06:32:53;27.98;;;4.53;;
25191;SDS011;13143;50.924;5.320;2022-11-23T06:35:18;17.33;;;3.13;;
25191;SDS011;13143;50.924;5.320;2022-11-23T06:37:46;21.50;;;3.85;;
25191;SDS011;13143;50.924;5.320;2022-11-23T06:40:13;23.77;;;2.92;;
25191;SDS011;13143;50.924;5.320;2022-11-23T06:42:39;23.77;;;3.40;;
25191;SDS011;13143;50.924;5.320;2022-11-23T06:45:05;19.02;;;3.05;;
25191;SDS011;13143;50.924;5.320;2022-11-23T06:47:31;23.38;;;3.60;;
25191;SDS011;13143;50.924;5.320;2022-11-23T06:49:56;17.98;;;3.42;;
25191;SDS011;13143;50.924;5.320;2022-11-23T06:52:22;15.45;;;3.38;;
25191;SDS011;13143;50.924;5.320;2022-11-23T06:54:47;24.13;;;3.60;;
25191;SDS011;13143;50.924;5.320;2022-11-23T06:57:13;22.20;;;3.40;;
25191;SDS011;13143;50.924;5.320;2022-11-23T06:59:38;23.73;;;3.38;;
25191;SDS011;13143;50.924;5.320;2022-11-23T07:02:04;17.65;;;3.05;;
25191;SDS011;13143;50.924;5.320;2022-11-23T07:04:30;20.17;;;3.85;;
25191;SDS011;13143;50.924;5.320;2022-11-23T07:06:56;20.10;;;3.58;;
25191;SDS011;13143;50.924;5.320;2022-11-23T07:09:21;28.50;;;3.83;;
25191;SDS011;13143;50.924;5.320;2022-11-23T07:11:47;22.98;;;3.92;;
25191;SDS011;13143;50.924;5.320;2022-11-23T07:14:13;17.52;;;3.63;;
25191;SDS011;13143;50.924;5.320;2022-11-23T07:16:38;19.75;;;4.18;;
25191;SDS011;13143;50.924;5.320;2022-11-23T07:19:04;25.55;;;3.75;;
25191;SDS011;13143;50.924;5.320;2022-11-23T07:21:29;24.13;;;3.97;;
25191;SDS011;13143;50.924;5.320;2022-11-23T07:23:55;22.00;;;3.47;;
25191;SDS011;13143;50.924;5.320;2022-11-23T07:26:21;18.85;;;2.97;;
25191;SDS011;13143;50.924;5.320;2022-11-23T07:28:46;16.73;;;3.45;;
25191;SDS011;13143;50.924;5.320;2022-11-23T07:31:12;23.20;;;4.00;;
25191;SDS011;13143;50.924;5.320;2022-11-23T07:33:42;23.60;;;3.03;;
25191;SDS011;13143;50.924;5.320;2022-11-23T07:36:09;31.85;;;3.10;;
25191;SDS011;13143;50.924;5.320;2022-11-23T07:38:34;18.92;;;4.05;;
25191;SDS011;13143;50.924;5.320;2022-11-23T07:41:00;33.88;;;4.55;;
25191;SDS011;13143;50.924;5.320;2022-11-23T07:43:27;24.60;;;3.45;;
25191;SDS011;13143;50.924;5.320;2022-11-23T07:45:56;24.70;;;3.42;;
25191;SDS011;13143;50.924;5.320;2022-11-23T07:48:22;27.05;;;5.10;;
25191;SDS011;13143;50.924;5.320;2022-11-23T07:50:50;20.48;;;3.00;;
25191;SDS011;13143;50.924;5.320;2022-11-23T07:53:17;24.35;;;4.10;;
25191;SDS011;13143;50.924;5.320;2022-11-23T07:55:43;20.55;;;3.80;;
25191;SDS011;13143;50.924;5.320;2022-11-23T07:58:09;19.15;;;3.20;;
25191;SDS011;13143;50.924;5.320;2022-11-23T08:00:35;26.83;;;3.95;;
25191;SDS011;13143;50.924;5.320;2022-11-23T08:03:01;23.70;;;4.07;;
25191;SDS011;13143;50.924;5.320;2022-11-23T08:05:27;24.08;;;3.50;;
25191;SDS011;13143;50.924;5.320;2022-11-23T08:07:58;27.20;;;3.72;;
25191;SDS011;13143;50.924;5.320;2022-11-23T08:10:28;22.83;;;3.42;;
25191;SDS011;13143;50.924;5.320;2022-11-23T08:12:55;23.27;;;3.47;;
25191;SDS011;13143;50.924;5.320;2022-11-23T08:15:25;19.75;;;3.17;;
25191;SDS011;13143;50.924;5.320;2022-11-23T08:18:01;15.05;;;2.75;;
25191;SDS011;13143;50.924;5.320;2022-11-23T08:20:27;17.52;;;2.97;;
25191;SDS011;13143;50.924;5.320;2022-11-23T08:22:54;19.55;;;3.20;;
25191;SDS011;13143;50.924;5.320;2022-11-23T08:25:21;12.85;;;3.08;;
25191;SDS011;13143;50.924;5.320;2022-11-23T08:27:52;19.25;;;3.00;;
25191;SDS011;13143;50.924;5.320;2022-11-23T08:30:22;25.63;;;3.20;;
25191;SDS011;13143;50.924;5.320;2022-11-23T08:32:48;18.33;;;2.78;;
25191;SDS011;13143;50.924;5.320;2022-11-23T08:35:14;30.13;;;3.75;;
25191;SDS011;13143;50.924;5.320;2022-11-23T08:37:39;23.60;;;3.33;;
25191;SDS011;13143;50.924;5.320;2022-11-23T08:40:05;23.35;;;3.25;;
25191;SDS011;13143;50.924;5.320;2022-11-23T08:42:31;20.20;;;2.95;;
25191;SDS011;13143;50.924;5.320;2022-11-23T08:44:56;26.85;;;3.92;;
25191;SDS011;13143;50.924;5.320;2022-11-23T08:47:24;29.73;;;3.85;;
25191;SDS011;13143;50.924;5.320;2022-11-23T08:49:51;20.25;;;2.80;;
25191;SDS011;13143;50.924;5.320;2022-11-23T08:52:16;30.35;;;2.97;;
25191;SDS011;13143;50.924;5.320;2022-11-23T08:54:42;24.05;;;4.07;;
25191;SDS011;13143;50.924;5.320;2022-11-23T08:57:07;18.50;;;2.92;;
25191;SDS011;13143;50.924;5.320;2022-11-23T08:59:33;25.35;;;3.53;;
25191;SDS011;13143;50.924;5.320;2022-11-23T09:01:59;16.38;;;3.38;;
25191;SDS011;13143;50.924;5.320;2022-11-23T09:04:24;18.95;;;3.13;;
25191;SDS011;13143;50.924;5.320;2022-11-23T09:06:51;18.30;;;2.63;;
25191;SDS011;13143;50.924;5.320;2022-11-23T09:09:17;11.10;;;2.60;;
25191;SDS011;13143;50.924;5.320;2022-11-23T09:11:43;15.93;;;2.97;;
25191;SDS011;13143;50.924;5.320;2022-11-23T09:14:08;15.18;;;2.80;;
25191;SDS011;13143;50.924;5.320;2022-11-23T09:16:34;17.02;;;3.35;;
25191;SDS011;13143;50.924;5.320;2022-11-23T09:19:00;21.55;;;3.40;;
25191;SDS011;13143;50.924;5.320;2022-11-23T09:21:26;36.38;;;2.78;;
25191;SDS011;13143;50.924;5.320;2022-11-23T09:23:55;13.15;;;2.38;;
25191;SDS011;13143;50.924;5.320;2022-11-23T09:26:21;18.38;;;3.10;;
25191;SDS011;13143;50.924;5.320;2022-11-23T09:28:47;11.13;;;2.13;;
25191;SDS011;13143;50.924;5.320;2022-11-23T09:31:12;15.10;;;3.15;;
25191;SDS011;13143;50.924;5.320;2022-11-23T09:33:38;12.43;;;2.40;;
25191;SDS011;13143;50.924;5.320;2022-11-23T09:36:04;17.35;;;2.97;;
25191;SDS011;13143;50.924;5.320;2022-11-23T09:38:30;16.25;;;2.83;;
25191;SDS011;13143;50.924;5.320;2022-11-23T09:41:02;16.70;;;3.60;;
25191;SDS011;13143;50.924;5.320;2022-11-23T09:43:55;14.43;;;2.20;;
25191;SDS011;13143;50.924;5.320;2022-11-23T09:49:19;16.60;;;3.05;;
25191;SDS011;13143;50.924;5.320;2022-11-23T09:51:47;15.20;;;2.72;;
25191;SDS011;13143;50.924;5.320;2022-11-23T09:54:24;14.63;;;2.90;;
25191;SDS011;13143;50.924;5.320;2022-11-23T09:57:01;10.57;;;2.38;;
25191;SDS011;13143;50.924;5.320;2022-11-23T10:01:54;10.48;;;2.53;;
25191;SDS011;13143;50.924;5.320;2022-11-23T10:04:20;12.80;;;2.47;;
25191;SDS011;13143;50.924;5.320;2022-11-23T10:06:51;12.68;;;1.80;;
25191;SDS011;13143;50.924;5.320;2022-11-23T10:15:10;11.88;;;2.08;;
25191;SDS011;13143;50.924;5.320;2022-11-23T10:17:47;18.63;;;2.72;;
25191;SDS011;13143;50.924;5.320;2022-11-23T10:20:48;15.32;;;2.95;;
25191;SDS011;13143;50.924;5.320;2022-11-23T10:26:19;8.93;;;1.75;;
25191;SDS011;13143;50.924;5.320;2022-11-23T10:28:49;8.73;;;1.85;;
25191;SDS011;13143;50.924;5.320;2022-11-23T10:31:16;10.80;;;2.00;;
25191;SDS011;13143;50.924;5.320;2022-11-23T10:33:52;7.47;;;1.55;;
25191;SDS011;13143;50.924;5.320;2022-11-23T10:36:28;9.55;;;1.70;;
25191;SDS011;13143;50.924;5.320;2022-11-23T10:38:55;8.40;;;1.30;;
25191;SDS011;13143;50.924;5.320;2022-11-23T10:41:23;7.40;;;1.52;;
25191;SDS011;13143;50.924;5.320;2022-11-23T10:44:15;7.90;;;1.60;;
25191;SDS011;13143;50.924;5.320;2022-11-23T10:46:52;7.63;;;1.45;;
25191;SDS011;13143;50.924;5.320;2022-11-23T10:49:19;8.20;;;1.60;;
25191;SDS011;13143;50.924;5.320;2022-11-23T10:51:57;11.93;;;1.40;;
25191;SDS011;13143;50.924;5.320;2022-11-23T10:54:37;7.45;;;1.95;;
25191;SDS011;13143;50.924;5.320;2022-11-23T10:59:56;7.55;;;1.70;;
25191;SDS011;13143;50.924;5.320;2022-11-23T11:02:24;8.98;;;1.73;;
25191;SDS011;13143;50.924;5.320;2022-11-23T11:04:52;6.40;;;1.95;;
25191;SDS011;13143;50.924;5.320;2022-11-23T11:07:57;6.97;;;1.38;;
25191;SDS011;13143;50.924;5.320;2022-11-23T11:10:58;10.73;;;1.77;;
25191;SDS011;13143;50.924;5.320;2022-11-23T11:13:41;4.65;;;1.38;;
25191;SDS011;13143;50.924;5.320;2022-11-23T11:19:21;4.35;;;1.30;;
25191;SDS011;13143;50.924;5.320;2022-11-23T11:21:53;7.55;;;1.83;;
25191;SDS011;13143;50.924;5.320;2022-11-23T11:24:25;12.73;;;2.22;;
25191;SDS011;13143;50.924;5.320;2022-11-23T11:26:58;10.23;;;1.55;;
25191;SDS011;13143;50.924;5.320;2022-11-23T11:29:33;13.73;;;1.70;;
25191;SDS011;13143;50.924;5.320;2022-11-23T11:32:12;7.57;;;2.03;;
25191;SDS011;13143;50.924;5.320;2022-11-23T11:34:49;9.35;;;1.95;;
25191;SDS011;13143;50.924;5.320;2022-11-23T11:37:33;8.27;;;1.75;;
25191;SDS011;13143;50.924;5.320;2022-11-23T11:42:47;11.25;;;1.70;;
25191;SDS011;13143;50.924;5.320;2022-11-23T11:45:20;11.45;;;2.05;;
25191;SDS011;13143;50.924;5.320;2022-11-23T11:47:59;8.38;;;1.60;;
25191;SDS011;13143;50.924;5.320;2022-11-23T11:50:34;14.38;;;1.90;;
25191;SDS011;13143;50.924;5.320;2022-11-23T11:53:05;11.38;;;1.20;;
25191;SDS011;13143;50.924;5.320;2022-11-23T11:58:23;9.23;;;1.38;;
25191;SDS011;13143;50.924;5.320;2022-11-23T12:00:52;13.07;;;1.92;;
25191;SDS011;13143;50.924;5.320;2022-11-23T12:03:46;9.57;;;1.93;;
25191;SDS011;13143;50.924;5.320;2022-11-23T12:06:22;10.10;;;1.98;;
25191;SDS011;13143;50.924;5.320;2022-11-23T12:09:00;8.88;;;1.45;;
25191;SDS011;13143;50.924;5.320;2022-11-23T12:11:33;11.40;;;1.70;;
25191;SDS011;13143;50.924;5.320;2022-11-23T12:14:00;11.65;;;1.92;;
25191;SDS011;13143;50.924;5.320;2022-11-23T12:22:44;9.43;;;1.30;;
25191;SDS011;13143;50.924;5.320;2022-11-23T12:24:55;9.27;;;1.45;;
25191;SDS011;13143;50.924;5.320;2022-11-23T12:30:29;6.80;;;1.30;;
25191;SDS011;13143;50.924;5.320;2022-11-23T12:33:41;5.10;;;1.42;;
25191;SDS011;13143;50.924;5.320;2022-11-23T12:36:44;6.85;;;1.35;;
25191;SDS011;13143;50.924;5.320;2022-11-23T12:44:47;5.07;;;1.40;;
25191;SDS011;13143;50.924;5.320;2022-11-23T12:47:30;8.98;;;1.60;;
25191;SDS011;13143;50.924;5.320;2022-11-23T13:00:33;5.70;;;1.48;;
25191;SDS011;13143;50.924;5.320;2022-11-23T13:06:13;6.72;;;1.67;;
25191;SDS011;13143;50.924;5.320;2022-11-23T13:14:39;4.30;;;1.42;;
25191;SDS011;13143;50.924;5.320;2022-11-23T13:23:12;8.10;;;2.35;;
25191;SDS011;13143;50.924;5.320;2022-11-23T13:25:38;7.22;;;1.90;;
25191;SDS011;13143;50.924;5.320;2022-11-23T13:28:11;10.13;;;2.80;;
25191;SDS011;13143;50.924;5.320;2022-11-23T13:34:01;5.03;;;1.38;;
25191;SDS011;13143;50.924;5.320;2022-11-23T13:36:39;5.72;;;1.50;;
25191;SDS011;13143;50.924;5.320;2022-11-23T13:42:21;7.07;;;1.80;;
25191;SDS011;13143;50.924;5.320;2022-11-23T13:45:12;7.65;;;2.00;;
25191;SDS011;13143;50.924;5.320;2022-11-23T13:47:41;6.70;;;2.28;;
25191;SDS011;13143;50.924;5.320;2022-11-23T13:50:28;7.97;;;1.60;;
25191;SDS011;13143;50.924;5.320;2022-11-23T13:52:54;3.67;;;1.33;;
25191;SDS011;13143;50.924;5.320;2022-11-23T13:55:21;10.90;;;1.60;;
25191;SDS011;13143;50.924;5.320;2022-11-23T14:08:47;7.30;;;2.20;;
25191;SDS011;13143;50.924;5.320;2022-11-23T14:11:18;12.52;;;2.67;;
25191;SDS011;13143;50.924;5.320;2022-11-23T14:13:56;8.68;;;2.55;;
25191;SDS011;13143;50.924;5.320;2022-11-23T14:25:41;9.90;;;2.45;;
25191;SDS011;13143;50.924;5.320;2022-11-23T14:31:21;15.88;;;2.85;;
25191;SDS011;13143;50.924;5.320;2022-11-23T14:33:53;8.02;;;2.38;;
25191;SDS011;13143;50.924;5.320;2022-11-23T14:36:42;7.75;;;1.88;;
25191;SDS011;13143;50.924;5.320;2022-11-23T14:39:39;7.82;;;2.03;;
25191;SDS011;13143;50.924;5.320;2022-11-23T14:42:14;7.70;;;1.95;;
25191;SDS011;13143;50.924;5.320;2022-11-23T14:44:44;10.57;;;2.20;;
25191;SDS011;13143;50.924;5.320;2022-11-23T14:47:11;10.32;;;2.35;;
25191;SDS011;13143;50.924;5.320;2022-11-23T14:49:47;6.78;;;2.20;;
25191;SDS011;13143;50.924;5.320;2022-11-23T14:52:15;8.73;;;2.55;;
25191;SDS011;13143;50.924;5.320;2022-11-23T14:54:50;7.00;;;2.10;;
25191;SDS011;13143;50.924;5.320;2022-11-23T14:57:18;5.18;;;2.08;;
25191;SDS011;13143;50.924;5.320;2022-11-23T14:59:47;7.43;;;2.40;;
25191;SDS011;13143;50.924;5.320;2022-11-23T15:02:17;12.77;;;2.55;;
25191;SDS011;13143;50.924;5.320;2022-11-23T15:05:10;8.43;;;2.05;;
25191;SDS011;13143;50.924;5.320;2022-11-23T15:12:56;8.93;;;1.80;;
25191;SDS011;13143;50.924;5.320;2022-11-23T15:17:56;9.55;;;2.00;;
25191;SDS011;13143;50.924;5.320;2022-11-23T15:20:27;11.55;;;2.47;;
25191;SDS011;13143;50.924;5.320;2022-11-23T15:22:56;9.43;;;2.10;;
25191;SDS011;13143;50.924;5.320;2022-11-23T15:25:23;10.32;;;2.20;;
25191;SDS011;13143;50.924;5.320;2022-11-23T15:27:49;6.75;;;2.08;;
25191;SDS011;13143;50.924;5.320;2022-11-23T15:30:25;14.27;;;2.60;;
25191;SDS011;13143;50.924;5.320;2022-11-23T15:35:22;7.97;;;2.35;;
25191;SDS011;13143;50.924;5.320;2022-11-23T15:38:12;6.57;;;2.30;;
25191;SDS011;13143;50.924;5.320;2022-11-23T15:40:46;8.55;;;2.45;;
25191;SDS011;13143;50.924;5.320;2022-11-23T15:43:14;11.82;;;2.88;;
25191;SDS011;13143;50.924;5.320;2022-11-23T15:51:02;7.47;;;2.70;;
25191;SDS011;13143;50.924;5.320;2022-11-23T15:53:31;9.73;;;2.50;;
25191;SDS011;13143;50.924;5.320;2022-11-23T15:56:18;8.57;;;2.78;;
25191;SDS011;13143;50.924;5.320;2022-11-23T15:58:45;7.90;;;2.55;;
25191;SDS011;13143;50.924;5.320;2022-11-23T16:01:13;9.60;;;2.70;;
25191;SDS011;13143;50.924;5.320;2022-11-23T16:03:49;9.32;;;2.80;;
25191;SDS011;13143;50.924;5.320;2022-11-23T16:06:21;11.15;;;2.55;;
25191;SDS011;13143;50.924;5.320;2022-11-23T16:08:49;8.20;;;2.28;;
25191;SDS011;13143;50.924;5.320;2022-11-23T16:11:28;5.72;;;2.20;;
25191;SDS011;13143;50.924;5.320;2022-11-23T16:14:13;6.07;;;2.40;;
25191;SDS011;13143;50.924;5.320;2022-11-23T16:16:47;10.93;;;2.50;;
25191;SDS011;13143;50.924;5.320;2022-11-23T16:19:47;8.30;;;2.53;;
25191;SDS011;13143;50.924;5.320;2022-11-23T16:22:18;10.30;;;2.63;;
25191;SDS011;13143;50.924;5.320;2022-11-23T16:24:57;4.88;;;2.00;;
25191;SDS011;13143;50.924;5.320;2022-11-23T16:27:31;6.97;;;2.55;;
25191;SDS011;13143;50.924;5.320;2022-11-23T16:29:58;5.07;;;2.30;;
25191;SDS011;13143;50.924;5.320;2022-11-23T16:32:26;7.95;;;2.75;;
25191;SDS011;13143;50.924;5.320;2022-11-23T16:34:53;10.23;;;2.63;;
25191;SDS011;13143;50.924;5.320;2022-11-23T16:37:19;8.68;;;2.90;;
25191;SDS011;13143;50.924;5.320;2022-11-23T16:39:46;5.95;;;2.38;;
25191;SDS011;13143;50.924;5.320;2022-11-23T16:42:12;11.40;;;2.90;;
25191;SDS011;13143;50.924;5.320;2022-11-23T16:44:39;6.07;;;2.95;;
25191;SDS011;13143;50.924;5.320;2022-11-23T16:47:17;7.72;;;3.42;;
25191;SDS011;13143;50.924;5.320;2022-11-23T16:49:49;5.85;;;3.00;;
25191;SDS011;13143;50.924;5.320;2022-11-23T16:52:15;9.93;;;2.95;;
25191;SDS011;13143;50.924;5.320;2022-11-23T16:54:41;5.85;;;2.70;;